Time;durP1;ratioP1;P1;durP2;ratioP2;P2;SDS_P1;SDS_P2;PMS_P1;PMS_P2;Temp;Humidity;BMP_temperature;BMP_pressure;BME280_temperature;BME280_humidity;BME280_pressure;Samples;Min_cycle;Max_cycle;Signal;HPM_P1;HPM_P2
2023/02/12 00:04:25;;;;;;;29.27;15.15;;;;;;;5.25;81.14;101625.34;30859039;28;96651;-68
2023/02/12 00:19:26;;;;;;;19.48;11.63;;;;;;;5.31;81.12;101643.41;30869716;28;96734;-68
2023/02/12 00:34:26;;;;;;;19.92;11.63;;;;;;;5.37;81.42;101653.59;30868742;28;96960;-67
2023/02/12 00:49:34;;;;;;;21.05;10.45;;;;;;;5.35;80.76;101652.00;30867424;28;96704;-68
2023/02/12 01:04:34;;;;;;;20.45;10.55;;;;;;;5.31;80.96;101656.63;30865672;28;96664;-67
2023/02/12 01:19:34;;;;;;;19.08;9.93;;;;;;;5.22;81.00;101668.66;30863666;28;96635;-67
2023/02/12 01:34:35;;;;;;;25.08;9.52;;;;;;;5.16;81.04;101673.50;30863234;28;96684;-67
2023/02/12 01:49:40;;;;;;;20.23;9.27;;;;;;;5.18;81.60;101721.78;30861826;28;96699;-68
2023/02/12 02:04:49;;;;;;;17.52;9.63;;;;;;;5.31;81.84;101727.16;30859855;28;96805;-68
2023/02/12 02:20:10;;;;;;;15.88;8.88;;;;;;;5.40;81.22;101732.69;30858455;28;96642;-68
2023/02/12 02:35:14;;;;;;;18.17;9.02;;;;;;;5.39;81.68;101743.34;30855831;28;96648;-68
2023/02/12 02:50:19;;;;;;;21.17;9.90;;;;;;;5.47;81.55;101761.34;30855836;28;96622;-67
2023/02/12 03:05:28;;;;;;;16.85;7.80;;;;;;;5.50;81.59;101779.69;30855936;28;97641;-67
2023/02/12 03:20:35;;;;;;;19.92;8.20;;;;;;;5.55;81.01;101804.00;30854242;28;97594;-67
2023/02/12 03:35:50;;;;;;;17.15;7.80;;;;;;;5.53;81.12;101808.56;30857836;28;97231;-68
2023/02/12 03:50:53;;;;;;;16.08;8.50;;;;;;;5.51;81.35;101837.72;30873513;28;96734;-68
2023/02/12 04:05:54;;;;;;;14.30;7.18;;;;;;;5.46;80.80;101854.84;30871104;28;96505;-68
2023/02/12 04:21:00;;;;;;;17.55;6.68;;;;;;;5.46;81.20;101860.97;30868949;28;96854;-67
2023/02/12 04:36:14;;;;;;;20.75;6.88;;;;;;;5.40;80.71;101879.84;30868055;28;96690;-67
2023/02/12 04:51:14;;;;;;;18.42;5.90;;;;;;;5.42;80.86;101907.88;30865164;28;96619;-68
2023/02/12 05:06:15;;;;;;;21.33;6.72;;;;;;;5.42;81.15;101913.16;30865166;28;96940;-68
2023/02/12 05:21:16;;;;;;;21.27;7.60;;;;;;;5.43;80.96;101922.78;30863075;28;96659;-67
2023/02/12 05:36:19;;;;;;;14.82;6.63;;;;;;;5.41;80.42;101947.59;30862209;28;96730;-67
2023/02/12 05:51:22;;;;;;;16.00;7.15;;;;;;;5.39;80.86;101963.56;30859834;28;97260;-67
2023/02/12 06:06:25;;;;;;;14.05;6.97;;;;;;;5.35;81.02;101990.28;30859616;28;97145;-67
2023/02/12 06:21:26;;;;;;;17.45;6.88;;;;;;;5.33;80.61;102016.81;30856163;28;99491;-67
2023/02/12 06:36:27;;;;;;;16.70;7.18;;;;;;;5.36;80.59;102058.91;30856946;28;96708;-67
2023/02/12 06:51:28;;;;;;;18.25;7.20;;;;;;;5.46;80.58;102076.88;30854157;28;96890;-67
2023/02/12 07:06:30;;;;;;;23.55;6.53;;;;;;;5.56;80.50;102083.31;30853522;28;96645;-67
2023/02/12 07:21:31;;;;;;;20.00;6.60;;;;;;;5.66;80.03;102110.03;30860424;28;97201;-66
2023/02/12 07:36:32;;;;;;;19.52;6.97;;;;;;;5.85;80.19;102125.66;30866862;28;98719;-67
2023/02/12 07:51:34;;;;;;;20.17;6.07;;;;;;;6.03;79.85;102127.25;30890162;28;96771;-67
2023/02/12 08:06:38;;;;;;;19.52;7.38;;;;;;;6.19;79.47;102145.69;30878676;28;96697;-67
2023/02/12 08:21:38;;;;;;;15.57;6.43;;;;;;;6.34;78.73;102157.16;30873096;28;97232;-68
2023/02/12 08:36:40;;;;;;;23.05;7.68;;;;;;;6.45;78.71;102161.75;30848444;28;97399;-69
2023/02/12 08:51:43;;;;;;;20.98;7.10;;;;;;;6.67;78.57;102171.00;30862443;28;97238;-68
2023/02/12 09:06:45;;;;;;;28.43;7.70;;;;;;;7.13;77.54;102188.44;30861349;28;96943;-67
2023/02/12 09:21:49;;;;;;;21.93;6.97;;;;;;;8.54;77.02;102182.59;30860723;28;96541;-66
2023/02/12 09:36:49;;;;;;;19.13;7.53;;;;;;;10.13;74.26;102217.03;30857697;28;97860;-73
2023/02/12 09:51:53;;;;;;;21.17;6.63;;;;;;;9.78;72.97;102223.22;30856104;28;97162;-74
2023/02/12 10:07:10;;;;;;;18.20;7.37;;;;;;;9.95;72.13;102216.63;30856489;28;97422;-71
2023/02/12 10:22:23;;;;;;;18.43;6.47;;;;;;;12.73;67.81;102217.28;30852911;28;96878;-68
2023/02/12 10:37:31;;;;;;;14.37;7.17;;;;;;;12.11;67.13;102217.25;30853415;28;98426;-67
2023/02/12 10:52:37;;;;;;;14.03;5.63;;;;;;;11.69;65.70;102203.81;30851855;28;97380;-68
2023/02/12 11:07:47;;;;;;;17.80;7.23;;;;;;;11.85;64.39;102198.88;30852038;28;96907;-68
2023/02/12 11:22:57;;;;;;;12.53;4.10;;;;;;;19.53;51.75;102185.69;30849811;28;97033;-67
2023/02/12 11:37:58;;;;;;;17.50;4.93;;;;;;;16.64;51.14;102187.94;30850010;28;96737;-74
2023/02/12 11:53:08;;;;;;;13.53;4.80;;;;;;;14.59;53.17;102205.75;30848697;28;97349;-68
2023/02/12 12:08:40;;;;;;;12.23;4.20;;;;;;;24.91;38.29;102198.00;30866452;28;98807;-71
2023/02/12 12:23:52;;;;;;;9.77;3.80;;;;;;;18.21;41.51;102189.00;30854803;28;98322;-67
2023/02/12 12:39:09;;;;;;;15.77;4.83;;;;;;;14.62;44.71;102182.13;30865095;28;96677;-66
2023/02/12 12:54:27;;;;;;;13.00;3.40;;;;;;;17.52;44.84;102167.84;30861905;28;97279;-64
2023/02/12 13:09:46;;;;;;;12.97;3.87;;;;;;;17.63;39.55;102160.41;30860403;28;97151;-65
2023/02/12 13:24:55;;;;;;;12.63;2.90;;;;;;;13.90;43.60;102172.91;30856636;28;97228;-68
2023/02/12 13:40:01;;;;;;;9.73;2.97;;;;;;;11.81;46.28;102193.91;30858648;28;96771;-67
2023/02/12 13:55:49;;;;;;;10.20;2.60;;;;;;;10.62;48.34;102179.56;30856979;28;96770;-69
2023/02/12 14:11:05;;;;;;;9.43;2.10;;;;;;;10.35;49.11;102175.47;30877173;28;97147;-67
2023/02/12 14:26:15;;;;;;;10.27;2.47;;;;;;;10.05;50.04;102184.00;30764834;28;97482;-66
2023/02/12 14:41:41;;;;;;;9.13;2.00;;;;;;;9.53;50.65;102178.13;30739634;28;96935;-69
2023/02/12 14:56:47;;;;;;;8.10;2.00;;;;;;;9.13;52.14;102180.13;30751712;28;97445;-71
2023/02/12 15:11:59;;;;;;;12.87;3.20;;;;;;;8.72;53.18;102180.44;30791650;28;97343;-66
2023/02/12 15:27:00;;;;;;;13.20;3.30;;;;;;;8.35;54.31;102188.31;30781549;28;96825;-66
2023/02/12 15:42:00;;;;;;;7.22;2.47;;;;;;;8.07;55.50;102206.16;30772402;28;96868;-66
2023/02/12 15:57:09;;;;;;;10.13;3.25;;;;;;;7.59;56.01;102207.50;30852197;28;96827;-66
2023/02/12 16:12:13;;;;;;;9.73;3.47;;;;;;;7.50;57.68;102213.41;30828907;28;96739;-65
2023/02/12 16:27:14;;;;;;;10.67;4.37;;;;;;;7.40;58.42;102222.94;30735306;28;96728;-64
2023/02/12 16:42:18;;;;;;;15.43;6.57;;;;;;;7.24;59.73;102233.66;30853701;28;96834;-64
2023/02/12 16:57:18;;;;;;;24.40;7.40;;;;;;;6.87;60.79;102228.06;30855323;28;97538;-66
2023/02/12 17:12:19;;;;;;;16.30;7.53;;;;;;;6.38;61.46;102251.31;30851899;28;96850;-65
2023/02/12 17:27:19;;;;;;;17.67;8.53;;;;;;;6.27;63.12;102253.72;30848325;28;97450;-66
2023/02/12 17:42:20;;;;;;;23.33;8.80;;;;;;;6.28;63.21;102244.84;30784088;28;96833;-66
2023/02/12 17:57:20;;;;;;;19.67;8.65;;;;;;;6.17;63.06;102247.31;30842429;28;96808;-69
2023/02/12 18:12:21;;;;;;;19.63;8.07;;;;;;;6.19;63.60;102254.22;30825491;28;97353;-66
2023/02/12 18:27:21;;;;;;;17.85;8.10;;;;;;;6.19;63.92;102245.41;30781045;28;97298;-64
2023/02/12 18:42:21;;;;;;;20.10;9.02;;;;;;;6.13;63.99;102246.63;30775786;28;97010;-65
2023/02/12 18:57:22;;;;;;;19.75;8.90;;;;;;;6.14;64.27;102235.09;30720756;28;97181;-65
2023/02/12 19:12:24;;;;;;;20.20;9.18;;;;;;;6.08;65.07;102232.81;30716293;28;96801;-68
2023/02/12 19:27:25;;;;;;;20.70;10.05;;;;;;;6.02;64.96;102239.31;30708294;28;96970;-68
2023/02/12 19:42:25;;;;;;;22.33;8.30;;;;;;;5.92;66.30;102233.69;30720788;28;97464;-67
2023/02/12 19:57:26;;;;;;;24.95;10.48;;;;;;;5.85;66.54;102236.75;30719296;28;97217;-67
2023/02/12 20:12:26;;;;;;;21.42;9.38;;;;;;;5.92;67.61;102238.13;30804341;28;96703;-67
2023/02/12 20:27:26;;;;;;;23.92;9.95;;;;;;;5.81;68.52;102249.34;30854842;28;97275;-67
2023/02/12 20:42:27;;;;;;;25.23;10.07;;;;;;;5.65;69.12;102252.00;30860813;28;97236;-66
2023/02/12 20:57:27;;;;;;;23.25;9.82;;;;;;;5.61;70.22;102250.47;30864475;28;96582;-65
2023/02/12 21:12:28;;;;;;;23.25;9.18;;;;;;;5.58;70.81;102255.94;30761559;28;96910;-68
2023/02/12 21:27:28;;;;;;;25.88;12.13;;;;;;;5.56;71.66;102256.03;30739639;28;96955;-69
2023/02/12 21:42:29;;;;;;;20.50;10.68;;;;;;;5.58;72.51;102229.50;30737811;28;97335;-68
2023/02/12 21:57:31;;;;;;;24.15;11.40;;;;;;;5.63;72.58;102242.44;30737246;28;97481;-68
2023/02/12 22:12:34;;;;;;;27.92;12.25;;;;;;;5.62;73.08;102252.19;30737325;28;96658;-72
2023/02/12 22:27:34;;;;;;;24.65;10.50;;;;;;;5.56;73.58;102253.38;30750370;28;98518;-69
2023/02/12 22:42:35;;;;;;;21.98;10.07;;;;;;;5.24;73.70;102249.88;30734980;28;97509;-70
2023/02/12 22:57:35;;;;;;;18.50;9.82;;;;;;;5.22;74.23;102249.09;30760596;28;96591;-70
2023/02/12 23:12:36;;;;;;;23.15;10.85;;;;;;;5.01;74.53;102244.06;30843409;28;96741;-69
2023/02/12 23:27:36;;;;;;;23.58;11.13;;;;;;;4.97;74.96;102231.97;30806518;28;97259;-67
2023/02/12 23:42:37;;;;;;;19.65;9.55;;;;;;;4.90;75.00;102223.50;30846945;28;97262;-69
2023/02/12 23:57:37;;;;;;;19.77;9.45;;;;;;;4.81;75.75;102220.53;30863223;28;96680;-69
